createdAt,value
2022-10-16T00:01:07.378Z,100.00
2022-10-16T00:03:35.509Z,100.00
2022-10-16T00:06:03.898Z,100.00
2022-10-16T00:08:32.524Z,100.00
2022-10-16T00:11:05.125Z,100.00
2022-10-16T00:13:33.948Z,100.00
2022-10-16T00:16:03.811Z,100.00
2022-10-16T00:18:32.444Z,100.00
2022-10-16T00:21:05.164Z,100.00
2022-10-16T00:23:33.533Z,100.00
2022-10-16T00:26:03.088Z,100.00
2022-10-16T00:28:31.672Z,100.00
2022-10-16T00:30:59.603Z,100.00
2022-10-16T00:33:28.781Z,100.00
2022-10-16T00:35:59.542Z,100.00
2022-10-16T00:38:27.492Z,100.00
2022-10-16T00:40:55.413Z,100.00
2022-10-16T00:43:41.813Z,100.00
2022-10-16T00:46:16.867Z,100.00
2022-10-16T00:48:52.864Z,100.00
2022-10-16T00:51:24.051Z,100.00
2022-10-16T00:53:52.705Z,100.00
2022-10-16T00:56:20.994Z,100.00
2022-10-16T00:58:49.020Z,100.00
2022-10-16T01:01:17.136Z,100.00
2022-10-16T01:03:46.621Z,100.00
2022-10-16T01:09:13.508Z,100.00
2022-10-16T01:11:51.183Z,100.00
2022-10-16T01:14:29.109Z,100.00
2022-10-16T01:17:02.463Z,100.00
2022-10-16T01:19:46.545Z,100.00
2022-10-16T01:22:15.829Z,100.00
2022-10-16T01:27:27.569Z,100.00
2022-10-16T01:29:58.845Z,100.00
2022-10-16T01:32:34.476Z,100.00
2022-10-16T01:35:07.344Z,100.00
2022-10-16T01:37:38.962Z,100.00
2022-10-16T01:40:11.592Z,100.00
2022-10-16T01:42:44.959Z,100.00
2022-10-16T01:45:19.209Z,100.00
2022-10-16T01:47:48.600Z,100.00
2022-10-16T01:50:19.005Z,100.00
2022-10-16T01:52:51.886Z,100.00
2022-10-16T01:55:26.788Z,100.00
2022-10-16T01:57:57.270Z,100.00
2022-10-16T02:00:26.542Z,100.00
2022-10-16T02:02:57.288Z,100.00
2022-10-16T02:05:30.559Z,100.00
2022-10-16T02:08:00.445Z,100.00
2022-10-16T02:10:32.770Z,100.00
2022-10-16T02:13:07.668Z,100.00
2022-10-16T02:15:35.782Z,100.00
2022-10-16T02:18:04.127Z,100.00
2022-10-16T02:20:38.821Z,100.00
2022-10-16T02:23:11.088Z,100.00
2022-10-16T02:25:43.925Z,100.00
2022-10-16T02:28:20.052Z,100.00
2022-10-16T02:30:53.645Z,100.00
2022-10-16T02:33:24.273Z,100.00
2022-10-16T02:35:53.592Z,100.00
2022-10-16T02:38:23.512Z,100.00
2022-10-16T02:40:51.698Z,100.00
2022-10-16T02:43:21.500Z,100.00
2022-10-16T02:45:49.611Z,100.00
2022-10-16T02:48:17.485Z,100.00
2022-10-16T02:50:45.342Z,100.00
2022-10-16T02:53:13.589Z,100.00
2022-10-16T02:55:41.449Z,100.00
2022-10-16T02:58:09.316Z,100.00
2022-10-16T03:00:38.877Z,100.00
2022-10-16T03:03:06.733Z,100.00
2022-10-16T03:05:34.806Z,100.00
2022-10-16T03:08:02.992Z,100.00
2022-10-16T03:10:30.813Z,100.00
2022-10-16T03:12:58.688Z,100.00
2022-10-16T03:15:27.028Z,100.00
2022-10-16T03:17:56.437Z,100.00
2022-10-16T03:20:24.461Z,100.00
2022-10-16T03:22:52.523Z,100.00
2022-10-16T03:25:20.428Z,100.00
2022-10-16T03:27:48.368Z,100.00
2022-10-16T03:30:16.595Z,100.00
2022-10-16T03:32:45.856Z,100.00
2022-10-16T03:35:15.193Z,100.00
2022-10-16T03:37:43.097Z,100.00
2022-10-16T03:40:11.738Z,100.00
2022-10-16T03:42:39.572Z,100.00
2022-10-16T03:45:08.401Z,100.00
2022-10-16T03:47:36.333Z,100.00
2022-10-16T03:50:05.084Z,100.00
2022-10-16T03:52:34.530Z,100.00
2022-10-16T03:55:02.628Z,100.00
2022-10-16T03:57:30.543Z,100.00
2022-10-16T03:59:58.423Z,100.00
2022-10-16T04:02:26.371Z,100.00
2022-10-16T04:04:54.196Z,100.00
2022-10-16T04:07:22.240Z,100.00
2022-10-16T04:09:53.113Z,100.00
2022-10-16T04:12:20.997Z,100.00
2022-10-16T04:14:49.124Z,100.00
2022-10-16T04:17:17.168Z,100.00
2022-10-16T04:19:44.986Z,100.00
2022-10-16T04:22:12.985Z,100.00
2022-10-16T04:24:41.109Z,100.00
2022-10-16T04:27:10.469Z,100.00
2022-10-16T04:29:38.472Z,100.00
2022-10-16T04:32:06.729Z,100.00
2022-10-16T04:34:34.563Z,100.00
2022-10-16T04:37:02.593Z,100.00
2022-10-16T04:39:31.912Z,100.00
2022-10-16T04:41:59.757Z,100.00
2022-10-16T04:44:29.022Z,100.00
2022-10-16T04:46:57.017Z,100.00
2022-10-16T04:49:24.901Z,100.00
2022-10-16T04:51:53.065Z,100.00
2022-10-16T04:54:21.008Z,100.00
2022-10-16T04:56:51.176Z,100.00
2022-10-16T04:59:20.113Z,100.00
2022-10-16T05:01:49.733Z,100.00
2022-10-16T05:04:17.578Z,100.00
2022-10-16T05:06:45.743Z,100.00
2022-10-16T05:09:13.667Z,100.00
2022-10-16T05:11:41.618Z,100.00
2022-10-16T05:16:42.607Z,100.00
2022-10-16T05:19:28.396Z,100.00
2022-10-16T05:21:57.359Z,100.00
2022-10-16T05:24:25.433Z,100.00
2022-10-16T05:26:53.517Z,100.00
2022-10-16T05:29:21.953Z,100.00
2022-10-16T05:31:53.047Z,100.00
2022-10-16T05:34:22.962Z,100.00
2022-10-16T05:36:51.151Z,100.00
2022-10-16T05:39:19.324Z,100.00
2022-10-16T05:41:47.534Z,100.00
2022-10-16T05:44:15.983Z,100.00
2022-10-16T05:46:43.883Z,100.00
2022-10-16T05:49:11.829Z,100.00
2022-10-16T05:51:41.110Z,100.00
2022-10-16T05:54:09.238Z,100.00
2022-10-16T05:56:37.294Z,100.00
2022-10-16T05:59:05.892Z,100.00
2022-10-16T06:01:34.254Z,100.00
2022-10-16T06:04:02.372Z,100.00
2022-10-16T06:06:30.707Z,100.00
2022-10-16T06:09:00.861Z,100.00
2022-10-16T06:11:31.940Z,100.00
2022-10-16T06:14:02.977Z,100.00
2022-10-16T06:16:31.253Z,100.00
2022-10-16T06:19:00.327Z,100.00
2022-10-16T06:21:29.736Z,100.00
2022-10-16T06:23:59.809Z,100.00
2022-10-16T06:26:29.029Z,100.00
2022-10-16T06:28:57.916Z,100.00
2022-10-16T06:31:28.559Z,100.00
2022-10-16T06:33:57.225Z,100.00
2022-10-16T06:36:26.145Z,100.00
2022-10-16T06:38:54.593Z,100.00
2022-10-16T06:41:24.985Z,100.00
2022-10-16T06:43:53.702Z,100.00
2022-10-16T06:46:23.926Z,100.00
2022-10-16T06:48:52.014Z,100.00
2022-10-16T06:51:21.104Z,100.00
2022-10-16T06:54:06.380Z,100.00
2022-10-16T06:56:36.791Z,100.00
2022-10-16T06:59:05.956Z,100.00
2022-10-16T07:01:34.981Z,100.00
2022-10-16T07:04:03.470Z,100.00
2022-10-16T07:06:34.071Z,100.00
2022-10-16T07:09:04.838Z,100.00
2022-10-16T07:11:32.829Z,100.00
2022-10-16T07:14:02.081Z,100.00
2022-10-16T07:16:31.382Z,100.00
2022-10-16T07:19:01.647Z,100.00
2022-10-16T07:21:31.301Z,100.00
2022-10-16T07:24:02.445Z,100.00
2022-10-16T07:26:32.779Z,100.00
2022-10-16T07:29:02.886Z,100.00
2022-10-16T07:31:31.167Z,100.00
2022-10-16T07:34:01.298Z,100.00
2022-10-16T07:36:29.324Z,100.00
2022-10-16T07:38:59.840Z,100.00
2022-10-16T07:41:29.174Z,100.00
2022-10-16T07:43:58.454Z,100.00
2022-10-16T07:46:29.001Z,100.00
2022-10-16T07:48:57.226Z,100.00
2022-10-16T07:51:26.881Z,100.00
2022-10-16T07:53:55.349Z,100.00
2022-10-16T07:56:23.464Z,100.00
2022-10-16T07:58:52.574Z,100.00
2022-10-16T08:01:21.247Z,100.00
2022-10-16T08:03:52.291Z,100.00
2022-10-16T08:06:27.591Z,100.00
2022-10-16T08:08:56.444Z,100.00
2022-10-16T08:11:24.721Z,100.00
2022-10-16T08:13:52.640Z,100.00
2022-10-16T08:16:20.589Z,100.00
2022-10-16T08:18:52.632Z,100.00
2022-10-16T08:21:22.305Z,100.00
2022-10-16T08:23:54.808Z,100.00
2022-10-16T08:26:27.237Z,100.00
2022-10-16T08:28:56.009Z,100.00
2022-10-16T08:31:24.396Z,100.00
2022-10-16T08:33:53.875Z,100.00
2022-10-16T08:36:21.856Z,100.00
2022-10-16T08:38:51.536Z,100.00
2022-10-16T08:41:30.943Z,100.00
2022-10-16T08:44:22.595Z,100.00
2022-10-16T08:47:01.784Z,100.00
2022-10-16T08:49:34.154Z,100.00
2022-10-16T08:52:02.363Z,100.00
2022-10-16T08:54:34.955Z,100.00
2022-10-16T08:57:11.413Z,100.00
2022-10-16T08:59:39.290Z,100.00
2022-10-16T09:02:26.024Z,100.00
2022-10-16T09:05:13.555Z,100.00
2022-10-16T09:07:52.104Z,100.00
2022-10-16T09:10:36.570Z,100.00
2022-10-16T09:13:15.961Z,100.00
2022-10-16T09:15:52.188Z,100.00
2022-10-16T09:18:30.141Z,100.00
2022-10-16T09:21:11.322Z,100.00
2022-10-16T09:23:39.862Z,100.00
2022-10-16T09:26:13.078Z,100.00
2022-10-16T09:28:41.226Z,100.00
2022-10-16T09:31:17.410Z,100.00
2022-10-16T09:33:47.593Z,100.00
2022-10-16T09:36:17.393Z,99.36
2022-10-16T09:38:45.224Z,99.40
2022-10-16T09:41:19.634Z,98.74
2022-10-16T09:43:55.730Z,97.90
2022-10-16T09:46:28.241Z,97.42
2022-10-16T09:48:58.566Z,96.74
2022-10-16T09:51:30.191Z,96.26
2022-10-16T09:54:01.041Z,96.54
2022-10-16T09:56:30.770Z,96.54
2022-10-16T09:59:00.209Z,96.43
2022-10-16T10:01:33.684Z,96.11
2022-10-16T10:04:04.012Z,96.86
2022-10-16T10:06:39.025Z,96.39
2022-10-16T10:09:16.200Z,93.96
2022-10-16T10:11:47.496Z,92.87
2022-10-16T10:14:21.196Z,91.39
2022-10-16T10:16:50.203Z,89.88
2022-10-16T10:19:19.473Z,87.86
2022-10-16T10:21:49.764Z,87.31
2022-10-16T10:24:19.858Z,87.41
2022-10-16T10:26:54.850Z,88.29
2022-10-16T10:29:43.993Z,87.88
2022-10-16T10:32:27.512Z,88.01
2022-10-16T10:35:09.614Z,88.29
2022-10-16T10:38:01.382Z,87.81
2022-10-16T10:40:39.527Z,87.91
2022-10-16T10:43:18.283Z,87.14
2022-10-16T10:45:49.416Z,87.31
2022-10-16T10:48:33.310Z,87.72
2022-10-16T10:51:06.550Z,86.85
2022-10-16T10:53:45.737Z,86.43
2022-10-16T10:56:25.804Z,87.53
2022-10-16T10:59:10.099Z,86.69
2022-10-16T11:01:48.366Z,86.31
2022-10-16T11:04:53.351Z,83.96
2022-10-16T11:07:26.108Z,84.58
2022-10-16T11:09:59.961Z,82.47
2022-10-16T11:12:32.136Z,82.17
2022-10-16T11:15:06.584Z,76.47
2022-10-16T11:17:40.618Z,76.88
2022-10-16T11:20:16.944Z,77.07
2022-10-16T11:22:49.738Z,77.39
2022-10-16T11:25:24.455Z,77.86
2022-10-16T11:27:56.750Z,78.22
2022-10-16T11:30:27.477Z,78.57
2022-10-16T11:33:06.843Z,77.49
2022-10-16T11:35:42.235Z,77.38
2022-10-16T11:38:17.578Z,77.25
2022-10-16T11:40:52.463Z,77.67
2022-10-16T11:43:25.329Z,77.82
2022-10-16T11:45:56.259Z,77.64
2022-10-16T11:48:32.537Z,77.60
2022-10-16T11:51:07.495Z,77.53
2022-10-16T11:53:47.437Z,77.73
2022-10-16T11:56:21.117Z,78.41
2022-10-16T11:58:59.252Z,78.63
2022-10-16T12:01:33.931Z,79.14
2022-10-16T12:04:16.691Z,78.84
2022-10-16T12:06:50.514Z,79.00
2022-10-16T12:09:23.961Z,79.13
2022-10-16T12:11:53.511Z,78.74
2022-10-16T12:14:57.198Z,78.88
2022-10-16T12:17:28.815Z,78.60
2022-10-16T12:20:01.737Z,78.01
2022-10-16T12:22:31.495Z,78.04
2022-10-16T12:24:59.747Z,77.72
2022-10-16T12:27:31.455Z,78.23
2022-10-16T12:30:01.368Z,78.17
2022-10-16T12:32:49.179Z,77.75
2022-10-16T12:35:23.074Z,77.76
2022-10-16T12:37:51.973Z,77.94
2022-10-16T12:40:29.249Z,78.17
2022-10-16T12:42:58.788Z,78.41
2022-10-16T12:45:33.253Z,78.62
2022-10-16T12:48:02.410Z,78.78
2022-10-16T12:50:35.025Z,79.22
2022-10-16T12:53:04.825Z,79.27
2022-10-16T12:55:44.913Z,79.77
2022-10-16T12:58:34.062Z,80.08
2022-10-16T13:01:13.305Z,80.53
2022-10-16T13:04:00.012Z,80.60
2022-10-16T13:06:37.100Z,80.61
2022-10-16T13:09:31.184Z,80.85
2022-10-16T13:12:13.635Z,81.07
2022-10-16T13:15:02.311Z,81.24
2022-10-16T13:17:39.390Z,81.18
2022-10-16T13:20:19.565Z,81.58
2022-10-16T13:22:57.523Z,80.20
2022-10-16T13:25:35.108Z,77.20
2022-10-16T13:28:04.082Z,75.23
2022-10-16T13:30:39.198Z,73.14
2022-10-16T13:33:13.694Z,72.73
2022-10-16T13:35:50.707Z,72.02
2022-10-16T13:38:20.993Z,70.97
2022-10-16T13:40:57.387Z,70.34
2022-10-16T13:43:30.187Z,70.06
2022-10-16T13:46:01.350Z,70.30
2022-10-16T13:48:29.296Z,70.33
2022-10-16T13:51:09.278Z,69.54
2022-10-16T13:53:37.936Z,70.82
2022-10-16T13:56:08.481Z,71.04
2022-10-16T13:58:36.509Z,71.17
2022-10-16T14:01:07.751Z,72.62
2022-10-16T14:03:37.485Z,73.59
2022-10-16T14:06:10.077Z,74.34
2022-10-16T14:08:38.054Z,74.10
2022-10-16T14:11:06.169Z,73.99
2022-10-16T14:13:38.654Z,73.64
2022-10-16T14:16:12.966Z,73.50
2022-10-16T14:18:42.311Z,74.64
2022-10-16T14:21:16.576Z,75.43
2022-10-16T14:23:45.147Z,76.16
2022-10-16T14:26:18.967Z,76.83
2022-10-16T14:28:48.698Z,77.10
2022-10-16T14:31:31.875Z,77.73
2022-10-16T14:34:00.241Z,77.93
2022-10-16T14:36:29.832Z,78.35
2022-10-16T14:39:03.278Z,78.62
2022-10-16T14:41:33.062Z,79.12
2022-10-16T14:44:05.049Z,79.49
2022-10-16T14:46:38.082Z,80.08
2022-10-16T14:49:19.644Z,80.28
2022-10-16T14:51:49.005Z,80.42
2022-10-16T14:54:18.942Z,80.88
2022-10-16T14:56:50.823Z,81.23
2022-10-16T14:59:25.573Z,81.12
2022-10-16T15:01:55.227Z,81.50
2022-10-16T15:04:23.039Z,81.81
2022-10-16T15:06:51.097Z,82.07
2022-10-16T15:09:19.282Z,82.40
2022-10-16T15:11:47.633Z,82.78
2022-10-16T15:16:48.535Z,83.48
2022-10-16T15:19:17.709Z,83.90
2022-10-16T15:21:45.649Z,84.58
2022-10-16T15:24:18.042Z,85.79
2022-10-16T15:26:49.835Z,94.22
2022-10-16T15:29:18.041Z,96.61
2022-10-16T15:31:48.440Z,100.00
2022-10-16T15:34:19.486Z,100.00
2022-10-16T15:36:47.596Z,100.00
2022-10-16T15:39:17.378Z,100.00
2022-10-16T15:41:49.054Z,100.00
2022-10-16T15:44:16.995Z,100.00
2022-10-16T15:46:44.997Z,100.00
2022-10-16T15:49:14.061Z,100.00
2022-10-16T15:51:44.146Z,100.00
2022-10-16T15:54:12.372Z,100.00
2022-10-16T15:56:40.404Z,100.00
2022-10-16T15:59:09.028Z,100.00
2022-10-16T16:01:37.716Z,100.00
2022-10-16T16:04:11.379Z,100.00
2022-10-16T16:06:56.612Z,100.00
2022-10-16T16:09:24.686Z,100.00
2022-10-16T16:11:53.511Z,100.00
2022-10-16T16:14:21.607Z,100.00
2022-10-16T16:16:49.792Z,100.00
2022-10-16T16:19:21.888Z,100.00
2022-10-16T16:21:50.504Z,100.00
2022-10-16T16:24:20.410Z,100.00
2022-10-16T16:26:48.278Z,100.00
2022-10-16T16:29:17.857Z,100.00
2022-10-16T16:31:48.033Z,100.00
2022-10-16T16:34:16.124Z,100.00
2022-10-16T16:36:44.277Z,100.00
2022-10-16T16:39:12.585Z,100.00
2022-10-16T16:41:41.971Z,100.00
2022-10-16T16:44:13.237Z,100.00
2022-10-16T16:46:41.562Z,100.00
2022-10-16T16:49:09.429Z,100.00
2022-10-16T16:51:39.857Z,100.00
2022-10-16T16:54:09.279Z,100.00
2022-10-16T16:56:38.009Z,100.00
2022-10-16T16:59:07.624Z,100.00
2022-10-16T17:01:35.987Z,100.00
2022-10-16T17:04:04.465Z,100.00
2022-10-16T17:06:32.584Z,100.00
2022-10-16T17:09:03.596Z,100.00
2022-10-16T17:11:32.131Z,100.00
2022-10-16T17:14:01.070Z,100.00
2022-10-16T17:16:32.420Z,100.00
2022-10-16T17:19:02.495Z,100.00
2022-10-16T17:21:32.964Z,100.00
2022-10-16T17:24:01.744Z,100.00
2022-10-16T17:26:30.085Z,100.00
2022-10-16T17:29:00.578Z,100.00
2022-10-16T17:31:31.637Z,100.00
2022-10-16T17:33:59.796Z,100.00
2022-10-16T17:36:29.703Z,100.00
2022-10-16T17:39:00.492Z,100.00
2022-10-16T17:41:28.724Z,100.00
2022-10-16T17:43:56.611Z,100.00
2022-10-16T17:46:26.062Z,100.00
2022-10-16T17:48:56.799Z,100.00
2022-10-16T17:51:26.872Z,100.00
2022-10-16T17:53:57.169Z,100.00
2022-10-16T17:56:26.390Z,100.00
2022-10-16T17:58:55.664Z,100.00
2022-10-16T18:01:26.197Z,100.00
2022-10-16T18:03:57.581Z,100.00
2022-10-16T18:06:25.688Z,100.00
2022-10-16T18:08:54.288Z,100.00
2022-10-16T18:11:23.629Z,100.00
2022-10-16T18:13:54.195Z,100.00
2022-10-16T18:16:22.698Z,100.00
2022-10-16T18:18:51.173Z,100.00
2022-10-16T18:21:21.342Z,100.00
2022-10-16T18:23:52.206Z,100.00
2022-10-16T18:26:21.651Z,100.00
2022-10-16T18:28:52.752Z,100.00
2022-10-16T18:31:21.273Z,100.00
2022-10-16T18:33:51.123Z,100.00
2022-10-16T18:36:22.375Z,100.00
2022-10-16T18:38:50.991Z,100.00
2022-10-16T18:41:19.717Z,100.00
2022-10-16T18:43:47.718Z,100.00
2022-10-16T18:46:18.161Z,100.00
2022-10-16T18:48:46.968Z,100.00
2022-10-16T18:51:19.020Z,100.00
2022-10-16T18:53:50.392Z,100.00
2022-10-16T18:56:20.661Z,100.00
2022-10-16T18:58:49.424Z,100.00
2022-10-16T19:01:20.980Z,100.00
2022-10-16T19:03:49.536Z,100.00
2022-10-16T19:06:18.198Z,100.00
2022-10-16T19:08:46.345Z,100.00
2022-10-16T19:11:16.953Z,100.00
2022-10-16T19:13:45.887Z,100.00
2022-10-16T19:16:20.492Z,100.00
2022-10-16T19:18:49.329Z,100.00
2022-10-16T19:21:17.797Z,100.00
2022-10-16T19:23:46.154Z,100.00
2022-10-16T19:26:17.749Z,100.00
2022-10-16T19:28:46.353Z,100.00
2022-10-16T19:31:16.224Z,100.00
2022-10-16T19:33:44.399Z,100.00
2022-10-16T19:36:14.506Z,100.00
2022-10-16T19:38:42.908Z,100.00
2022-10-16T19:41:12.675Z,100.00
2022-10-16T19:43:42.327Z,100.00
2022-10-16T19:46:12.616Z,100.00
2022-10-16T19:48:41.265Z,100.00
2022-10-16T19:51:12.885Z,100.00
2022-10-16T19:53:40.758Z,100.00
2022-10-16T19:56:15.437Z,100.00
2022-10-16T19:58:46.014Z,100.00
2022-10-16T20:01:14.918Z,100.00
2022-10-16T20:03:44.458Z,100.00
2022-10-16T20:06:12.465Z,100.00
2022-10-16T20:08:42.517Z,100.00
2022-10-16T20:11:14.032Z,100.00
2022-10-16T20:13:42.523Z,100.00
2022-10-16T20:16:13.960Z,100.00
2022-10-16T20:18:42.356Z,100.00
2022-10-16T20:21:11.139Z,100.00
2022-10-16T20:23:39.271Z,100.00
2022-10-16T20:26:07.725Z,100.00
2022-10-16T20:28:35.734Z,100.00
2022-10-16T20:31:08.466Z,100.00
2022-10-16T20:33:37.848Z,100.00
2022-10-16T20:36:11.373Z,100.00
2022-10-16T20:38:39.527Z,100.00
2022-10-16T20:41:08.673Z,100.00
2022-10-16T20:43:37.263Z,99.89
2022-10-16T20:46:08.863Z,99.95
2022-10-16T20:48:41.188Z,99.94
2022-10-16T20:51:13.532Z,100.00
2022-10-16T20:53:41.464Z,99.70
2022-10-16T20:56:10.157Z,99.58
2022-10-16T20:58:38.085Z,99.55
2022-10-16T21:01:07.410Z,98.94
2022-10-16T21:03:36.624Z,98.41
2022-10-16T21:06:08.097Z,97.75
2022-10-16T21:08:37.410Z,97.58
2022-10-16T21:11:11.973Z,97.02
2022-10-16T21:13:40.093Z,96.53
2022-10-16T21:16:08.413Z,96.52
2022-10-16T21:18:38.731Z,96.20
2022-10-16T21:21:11.059Z,95.45
2022-10-16T21:23:39.337Z,95.07
2022-10-16T21:26:08.506Z,95.23
2022-10-16T21:28:36.510Z,94.47
2022-10-16T21:31:12.259Z,94.51
2022-10-16T21:33:40.249Z,93.81
2022-10-16T21:36:15.804Z,93.26
2022-10-16T21:38:43.864Z,92.75
2022-10-16T21:41:16.650Z,92.67
2022-10-16T21:43:44.848Z,92.59
2022-10-16T21:46:13.041Z,91.85
2022-10-16T21:48:42.770Z,91.26
2022-10-16T21:51:11.597Z,90.24
2022-10-16T21:53:41.650Z,90.09
2022-10-16T21:56:14.830Z,90.69
2022-10-16T21:58:42.942Z,90.29
2022-10-16T22:01:13.287Z,89.89
2022-10-16T22:03:41.439Z,89.10
2022-10-16T22:06:11.425Z,88.97
2022-10-16T22:08:42.398Z,89.01
2022-10-16T22:11:12.166Z,88.53
2022-10-16T22:13:40.772Z,89.14
2022-10-16T22:16:09.610Z,88.74
2022-10-16T22:18:38.402Z,88.68
2022-10-16T22:21:07.980Z,88.33
2022-10-16T22:23:36.097Z,88.38
2022-10-16T22:26:07.841Z,88.27
2022-10-16T22:28:36.328Z,88.57
2022-10-16T22:31:06.210Z,89.25
2022-10-16T22:36:13.464Z,89.38
2022-10-16T22:38:41.888Z,89.46
2022-10-16T22:41:12.948Z,89.60
2022-10-16T22:43:42.884Z,89.36
2022-10-16T22:46:13.581Z,89.13
2022-10-16T22:48:42.217Z,89.44
2022-10-16T22:51:15.712Z,89.62
2022-10-16T22:53:46.034Z,89.57
2022-10-16T22:56:16.184Z,89.53
2022-10-16T22:58:44.718Z,89.49
2022-10-16T23:01:14.881Z,89.26
2022-10-16T23:03:43.067Z,88.96
2022-10-16T23:06:10.961Z,89.02
2022-10-16T23:08:38.942Z,89.00
2022-10-16T23:11:08.043Z,89.14
2022-10-16T23:13:39.415Z,88.96
2022-10-16T23:16:08.482Z,88.98
2022-10-16T23:18:36.704Z,89.01
2022-10-16T23:21:06.780Z,89.12
2022-10-16T23:23:36.725Z,89.17
2022-10-16T23:26:05.186Z,89.01
2022-10-16T23:28:33.375Z,89.27
2022-10-16T23:31:05.070Z,89.26
2022-10-16T23:33:33.467Z,89.36
2022-10-16T23:36:05.026Z,89.29
2022-10-16T23:38:33.045Z,89.38
2022-10-16T23:41:01.168Z,89.30
2022-10-16T23:43:29.654Z,89.31
2022-10-16T23:45:57.574Z,89.18
2022-10-16T23:48:26.853Z,89.30
2022-10-16T23:50:54.838Z,89.25
2022-10-16T23:53:23.402Z,89.28
2022-10-16T23:55:51.497Z,89.08
2022-10-16T23:58:20.006Z,89.05
